createdAt,value
2016-12-07T00:00:05.793Z,74387
2016-12-07T00:00:14.468Z,74384
2016-12-07T00:00:23.198Z,74387
2016-12-07T00:00:31.923Z,74387
2016-12-07T00:00:40.644Z,74385
2016-12-07T00:00:49.633Z,74388
2016-12-07T00:00:58.337Z,74386
2016-12-07T00:01:07.088Z,74384
2016-12-07T00:01:15.790Z,74387
2016-12-07T00:01:24.833Z,74382
2016-12-07T00:01:33.539Z,74382
2016-12-07T00:01:42.297Z,74388
2016-12-07T00:01:51.026Z,74384
2016-12-07T00:01:59.727Z,74390
2016-12-07T00:02:08.411Z,74387
2016-12-07T00:02:17.097Z,74382
2016-12-07T00:02:25.804Z,74388
2016-12-07T00:02:34.561Z,74387
2016-12-07T00:02:43.262Z,74388
2016-12-07T00:02:51.989Z,74387
2016-12-07T00:03:00.685Z,74383
2016-12-07T00:03:09.379Z,74383
2016-12-07T00:03:18.106Z,74384
2016-12-07T00:03:26.828Z,74383
2016-12-07T00:03:35.576Z,74386
2016-12-07T00:03:44.257Z,74383
2016-12-07T00:03:52.953Z,74391
2016-12-07T00:04:01.663Z,74388
2016-12-07T00:04:10.650Z,74382
2016-12-07T00:04:19.363Z,74384
2016-12-07T00:04:28.065Z,74387
2016-12-07T00:04:36.802Z,74382
2016-12-07T00:04:45.513Z,74383
2016-12-07T00:04:54.215Z,74380
2016-12-07T00:05:03.248Z,74383
2016-12-07T00:05:11.958Z,74388
2016-12-07T00:05:20.675Z,74382
2016-12-07T00:05:29.375Z,74385
2016-12-07T00:05:38.117Z,74379
2016-12-07T00:05:47.107Z,74384
2016-12-07T00:05:55.814Z,74381
2016-12-07T00:06:04.539Z,74387
2016-12-07T00:06:13.246Z,74383
2016-12-07T00:06:21.980Z,74381
2016-12-07T00:06:30.651Z,74384
2016-12-07T00:06:39.411Z,74390
2016-12-07T00:06:48.121Z,74385
2016-12-07T00:06:56.877Z,74388
2016-12-07T00:07:05.611Z,74389
2016-12-07T00:07:14.613Z,74382
2016-12-07T00:07:23.354Z,74387
2016-12-07T00:07:32.057Z,74385
2016-12-07T00:07:40.748Z,74383
2016-12-07T00:07:49.485Z,74385
2016-12-07T00:07:58.216Z,74387
2016-12-07T00:08:06.928Z,74380
2016-12-07T00:08:15.638Z,74379
2016-12-07T00:08:24.327Z,74383
2016-12-07T00:08:33.063Z,74380
2016-12-07T00:08:41.764Z,74382
2016-12-07T00:08:50.458Z,74386
2016-12-07T00:08:59.162Z,74386
2016-12-07T00:09:07.901Z,74380
2016-12-07T00:09:16.651Z,74381
2016-12-07T00:09:25.359Z,74384
2016-12-07T00:09:34.069Z,74383
2016-12-07T00:09:42.756Z,74381
2016-12-07T00:09:51.482Z,74385
2016-12-07T00:10:00.229Z,74384
2016-12-07T00:10:08.936Z,74380
2016-12-07T00:10:17.633Z,74379
2016-12-07T00:10:26.353Z,74387
2016-12-07T00:10:35.071Z,74382
2016-12-07T00:10:43.789Z,74386
2016-12-07T00:10:52.492Z,74383
2016-12-07T00:11:01.230Z,74385
2016-12-07T00:11:09.980Z,74384
2016-12-07T00:11:18.706Z,74388
2016-12-07T00:11:27.441Z,74379
2016-12-07T00:11:36.170Z,74383
2016-12-07T00:11:44.889Z,74383
2016-12-07T00:11:53.593Z,74384
2016-12-07T00:12:02.337Z,74384
2016-12-07T00:12:11.073Z,74384
2016-12-07T00:12:19.798Z,74384
2016-12-07T00:12:28.507Z,74381
2016-12-07T00:12:37.236Z,74382
2016-12-07T00:12:45.936Z,74382
2016-12-07T00:12:54.641Z,74383
2016-12-07T00:13:03.414Z,74382
2016-12-07T00:13:12.137Z,74382
2016-12-07T00:13:20.841Z,74391
2016-12-07T00:13:29.528Z,74380
2016-12-07T00:13:38.206Z,74381
2016-12-07T00:13:46.928Z,74382
2016-12-07T00:13:55.636Z,74379
2016-12-07T00:14:04.338Z,74379
2016-12-07T00:14:13.080Z,74382
2016-12-07T00:14:22.134Z,74384
2016-12-07T00:14:30.847Z,74385
2016-12-07T00:14:39.551Z,74382
2016-12-07T00:14:48.280Z,74381
2016-12-07T00:14:56.982Z,74381
2016-12-07T00:15:05.693Z,74383
2016-12-07T00:15:14.436Z,74384
2016-12-07T00:15:23.196Z,74382
2016-12-07T00:15:31.883Z,74381
2016-12-07T00:15:40.620Z,74389
2016-12-07T00:15:49.350Z,74385
2016-12-07T00:15:58.089Z,74382
2016-12-07T00:16:06.772Z,74379
2016-12-07T00:16:15.475Z,74383
2016-12-07T00:16:24.149Z,74382
2016-12-07T00:16:32.862Z,74385
2016-12-07T00:16:41.556Z,74383
2016-12-07T00:16:50.233Z,74384
2016-12-07T00:16:58.914Z,74380
2016-12-07T00:17:07.618Z,74382
2016-12-07T00:17:16.302Z,74379
2016-12-07T00:17:25.009Z,74382
2016-12-07T00:17:33.729Z,74388
2016-12-07T00:17:42.418Z,74385
2016-12-07T00:17:51.166Z,74384
2016-12-07T00:17:59.854Z,74381
2016-12-07T00:18:08.533Z,74385
2016-12-07T00:18:17.219Z,74383
2016-12-07T00:18:25.936Z,74382
2016-12-07T00:18:34.648Z,74381
2016-12-07T00:18:43.371Z,74382
2016-12-07T00:18:52.140Z,74381
2016-12-07T00:19:00.867Z,74385
2016-12-07T00:19:09.582Z,74386
2016-12-07T00:19:18.296Z,74389
2016-12-07T00:19:27.052Z,74381
2016-12-07T00:19:35.750Z,74386
2016-12-07T00:19:44.477Z,74386
2016-12-07T00:19:53.200Z,74385
2016-12-07T00:20:01.921Z,74385
2016-12-07T00:20:10.638Z,74386
2016-12-07T00:20:19.342Z,74388
2016-12-07T00:20:28.007Z,74383
2016-12-07T00:20:36.690Z,74382
2016-12-07T00:20:45.427Z,74379
2016-12-07T00:20:54.174Z,74382
2016-12-07T00:21:02.901Z,74384
2016-12-07T00:21:11.644Z,74381
2016-12-07T00:21:20.649Z,74383
2016-12-07T00:21:29.622Z,74382
2016-12-07T00:21:38.310Z,74384
2016-12-07T00:21:46.999Z,74383
2016-12-07T00:21:55.675Z,74384
2016-12-07T00:22:04.377Z,74384
2016-12-07T00:22:13.131Z,74385
2016-12-07T00:22:21.888Z,74382
2016-12-07T00:22:30.598Z,74382
2016-12-07T00:22:39.317Z,74380
2016-12-07T00:22:48.044Z,74385
2016-12-07T00:22:56.749Z,74382
2016-12-07T00:23:05.504Z,74381
2016-12-07T00:23:14.260Z,74384
2016-12-07T00:23:22.956Z,74387
2016-12-07T00:23:31.639Z,74390
2016-12-07T00:23:40.356Z,74382
2016-12-07T00:23:49.070Z,74383
2016-12-07T00:23:57.764Z,74387
2016-12-07T00:24:06.520Z,74389
2016-12-07T00:24:15.209Z,74380
2016-12-07T00:24:23.940Z,74379
2016-12-07T00:24:32.655Z,74381
2016-12-07T00:24:41.349Z,74381
2016-12-07T00:24:50.090Z,74383
2016-12-07T00:24:58.788Z,74387
2016-12-07T00:25:07.519Z,74384
2016-12-07T00:25:16.245Z,74384
2016-12-07T00:25:24.959Z,74383
2016-12-07T00:25:33.689Z,74384
2016-12-07T00:25:42.436Z,74386
2016-12-07T00:25:51.111Z,74382
2016-12-07T00:25:59.890Z,74378
2016-12-07T00:26:08.588Z,74382
2016-12-07T00:26:17.302Z,74382
2016-12-07T00:26:26.015Z,74381
2016-12-07T00:26:34.768Z,74379
2016-12-07T00:26:43.509Z,74380
2016-12-07T00:26:52.225Z,74381
2016-12-07T00:27:00.944Z,74381
2016-12-07T00:27:09.693Z,74381
2016-12-07T00:27:18.385Z,74379
2016-12-07T00:27:27.109Z,74377
2016-12-07T00:27:35.853Z,74381
2016-12-07T00:27:44.604Z,74385
2016-12-07T00:27:53.322Z,74379
2016-12-07T00:28:02.345Z,74376
2016-12-07T00:28:11.059Z,74379
2016-12-07T00:28:19.761Z,74382
2016-12-07T00:28:28.479Z,74380
2016-12-07T00:28:37.208Z,74384
2016-12-07T00:28:45.933Z,74380
2016-12-07T00:28:54.649Z,74384
2016-12-07T00:29:03.352Z,74383
2016-12-07T00:29:12.063Z,74383
2016-12-07T00:29:20.754Z,74384
2016-12-07T00:29:29.456Z,74382
2016-12-07T00:29:38.190Z,74385
2016-12-07T00:29:46.893Z,74384
2016-12-07T00:29:55.593Z,74385
2016-12-07T00:30:04.346Z,74384
2016-12-07T00:30:13.097Z,74388
2016-12-07T00:30:21.787Z,74380
2016-12-07T00:30:30.771Z,74387
2016-12-07T00:30:39.467Z,74381
2016-12-07T00:30:48.162Z,74381
2016-12-07T00:30:56.892Z,74385
2016-12-07T00:31:05.661Z,74385
2016-12-07T00:31:14.413Z,74382
2016-12-07T00:31:23.113Z,74385
2016-12-07T00:31:31.844Z,74388
2016-12-07T00:31:40.541Z,74384
2016-12-07T00:31:49.245Z,74387
2016-12-07T00:31:57.946Z,74387
2016-12-07T00:32:06.681Z,74387
2016-12-07T00:32:15.342Z,74384
2016-12-07T00:32:24.031Z,74383
2016-12-07T00:32:32.800Z,74387
2016-12-07T00:32:41.522Z,74385
2016-12-07T00:32:50.258Z,74388
2016-12-07T00:32:58.939Z,74391
2016-12-07T00:33:07.647Z,74389
2016-12-07T00:33:16.393Z,74391
2016-12-07T00:33:25.121Z,74389
2016-12-07T00:33:33.826Z,74391
2016-12-07T00:33:42.579Z,74387
2016-12-07T00:33:51.565Z,74387
2016-12-07T00:34:00.307Z,74382
2016-12-07T00:34:09.051Z,74386
2016-12-07T00:34:17.772Z,74387
2016-12-07T00:34:26.518Z,74386
2016-12-07T00:34:35.487Z,74390
2016-12-07T00:34:44.155Z,74385
2016-12-07T00:34:52.873Z,74384
2016-12-07T00:35:01.646Z,74388
2016-12-07T00:35:10.414Z,74390
2016-12-07T00:35:19.119Z,74388
2016-12-07T00:35:27.835Z,74388
2016-12-07T00:35:36.508Z,74389
2016-12-07T00:35:45.200Z,74395
2016-12-07T00:35:53.902Z,74391
2016-12-07T00:36:02.640Z,74389
2016-12-07T00:36:11.346Z,74391
2016-12-07T00:36:20.045Z,74395
2016-12-07T00:36:28.752Z,74394
2016-12-07T00:36:37.447Z,74390
2016-12-07T00:36:46.140Z,74387
2016-12-07T00:36:54.879Z,74389
2016-12-07T00:37:03.584Z,74389
2016-12-07T00:37:12.256Z,74390
2016-12-07T00:37:21.013Z,74388
2016-12-07T00:37:29.739Z,74390
2016-12-07T00:37:38.475Z,74389
2016-12-07T00:37:47.180Z,74390
2016-12-07T00:37:55.912Z,74389
2016-12-07T00:38:04.618Z,74391
2016-12-07T00:38:13.324Z,74391
2016-12-07T00:38:22.078Z,74394
2016-12-07T00:38:30.821Z,74394
2016-12-07T00:38:39.497Z,74387
2016-12-07T00:38:48.263Z,74386
2016-12-07T00:38:56.973Z,74388
2016-12-07T00:39:05.974Z,74388
2016-12-07T00:39:14.728Z,74386
2016-12-07T00:39:23.450Z,74388
2016-12-07T00:39:32.198Z,74389
2016-12-07T00:39:40.913Z,74387
2016-12-07T00:39:49.661Z,74384
2016-12-07T00:39:58.372Z,74390
2016-12-07T00:40:07.400Z,74388
2016-12-07T00:40:16.132Z,74389
2016-12-07T00:40:24.871Z,74386
2016-12-07T00:40:33.632Z,74386
2016-12-07T00:40:42.352Z,74390
2016-12-07T00:40:51.088Z,74391
2016-12-07T00:40:59.785Z,74391
2016-12-07T00:41:08.447Z,74392
2016-12-07T00:41:17.169Z,74388
2016-12-07T00:41:25.905Z,74391
2016-12-07T00:41:34.637Z,74391
2016-12-07T00:41:43.357Z,74395
2016-12-07T00:41:52.054Z,74389
2016-12-07T00:42:00.745Z,74393
2016-12-07T00:42:09.487Z,74394
2016-12-07T00:42:18.162Z,74396
2016-12-07T00:42:26.848Z,74394
2016-12-07T00:42:35.543Z,74394
2016-12-07T00:42:44.569Z,74393
2016-12-07T00:42:53.274Z,74390
2016-12-07T00:43:01.993Z,74394
2016-12-07T00:43:10.686Z,74392
2016-12-07T00:43:19.408Z,74392
2016-12-07T00:43:28.132Z,74397
2016-12-07T00:43:36.850Z,74395
2016-12-07T00:43:45.555Z,74398
2016-12-07T00:43:54.242Z,74394
2016-12-07T00:44:03.022Z,74393
2016-12-07T00:44:11.796Z,74401
2016-12-07T00:44:20.521Z,74397
2016-12-07T00:44:29.205Z,74399
2016-12-07T00:44:37.926Z,74399
2016-12-07T00:44:46.633Z,74397
2016-12-07T00:44:55.361Z,74396
2016-12-07T00:45:04.065Z,74398
2016-12-07T00:45:12.787Z,74398
2016-12-07T00:45:21.481Z,74400
2016-12-07T00:45:30.180Z,74400
2016-12-07T00:45:38.926Z,74399
2016-12-07T00:45:47.944Z,74399
2016-12-07T00:45:56.663Z,74396
2016-12-07T00:46:05.383Z,74400
2016-12-07T00:46:14.085Z,74400
2016-12-07T00:46:22.755Z,74395
2016-12-07T00:46:31.480Z,74398
2016-12-07T00:46:40.245Z,74398
2016-12-07T00:46:48.993Z,74396
2016-12-07T00:46:57.730Z,74399
2016-12-07T00:47:06.415Z,74397
2016-12-07T00:47:15.118Z,74397
2016-12-07T00:47:23.821Z,74403
2016-12-07T00:47:32.528Z,74400
2016-12-07T00:47:41.255Z,74400
2016-12-07T00:47:49.975Z,74403
2016-12-07T00:47:58.709Z,74402
2016-12-07T00:48:07.455Z,74400
2016-12-07T00:48:16.174Z,74399
2016-12-07T00:48:24.912Z,74405
2016-12-07T00:48:33.603Z,74403
2016-12-07T00:48:42.308Z,74405
2016-12-07T00:48:51.042Z,74405
2016-12-07T00:48:59.801Z,74407
2016-12-07T00:49:08.526Z,74404
2016-12-07T00:49:17.244Z,74402
2016-12-07T00:49:25.983Z,74404
2016-12-07T00:49:34.711Z,74404
2016-12-07T00:49:43.418Z,74406
2016-12-07T00:49:52.079Z,74407
2016-12-07T00:50:00.764Z,74404
2016-12-07T00:50:09.453Z,74405
2016-12-07T00:50:18.150Z,74406
2016-12-07T00:50:26.855Z,74407
2016-12-07T00:50:35.578Z,74407
2016-12-07T00:50:44.308Z,74410
2016-12-07T00:50:53.004Z,74408
2016-12-07T00:51:01.714Z,74408
2016-12-07T00:51:10.415Z,74406
2016-12-07T00:51:19.109Z,74400
2016-12-07T00:51:27.832Z,74406
2016-12-07T00:51:36.540Z,74403
2016-12-07T00:51:45.298Z,74406
2016-12-07T00:51:54.006Z,74410
2016-12-07T00:52:02.725Z,74408
2016-12-07T00:52:11.429Z,74406
2016-12-07T00:52:20.451Z,74409
2016-12-07T00:52:29.214Z,74406
2016-12-07T00:52:37.918Z,74406
2016-12-07T00:52:46.600Z,74411
2016-12-07T00:52:55.313Z,74411
2016-12-07T00:53:04.080Z,74408
2016-12-07T00:53:12.825Z,74403
2016-12-07T00:53:21.549Z,74406
2016-12-07T00:53:30.247Z,74405
2016-12-07T00:53:38.949Z,74409
2016-12-07T00:53:47.663Z,74405
2016-12-07T00:53:56.696Z,74401
2016-12-07T00:54:05.434Z,74409
2016-12-07T00:54:14.163Z,74406
2016-12-07T00:54:23.452Z,74405
2016-12-07T00:54:32.133Z,74404
2016-12-07T00:54:40.844Z,74404
2016-12-07T00:54:49.861Z,74402
2016-12-07T00:54:58.568Z,74409
2016-12-07T00:55:07.297Z,74404
2016-12-07T00:55:16.014Z,74407
2016-12-07T00:55:24.729Z,74404
2016-12-07T00:55:33.478Z,74401
2016-12-07T00:55:42.163Z,74405
2016-12-07T00:55:50.899Z,74402
2016-12-07T00:55:59.589Z,74404
2016-12-07T00:56:08.312Z,74400
2016-12-07T00:56:17.048Z,74402
2016-12-07T00:56:25.713Z,74403
2016-12-07T00:56:34.440Z,74401
2016-12-07T00:56:43.175Z,74406
2016-12-07T00:56:51.884Z,74401
2016-12-07T00:57:00.606Z,74402
2016-12-07T00:57:09.384Z,74404
2016-12-07T00:57:18.128Z,74403
2016-12-07T00:57:26.844Z,74407
2016-12-07T00:57:35.513Z,74400
2016-12-07T00:57:44.218Z,74400
2016-12-07T00:57:52.930Z,74405
2016-12-07T00:58:01.642Z,74402
2016-12-07T00:58:10.365Z,74401
2016-12-07T00:58:19.095Z,74404
2016-12-07T00:58:27.821Z,74400
2016-12-07T00:58:36.544Z,74401
2016-12-07T00:58:45.213Z,74401
2016-12-07T00:58:53.950Z,74401
2016-12-07T00:59:02.687Z,74400
2016-12-07T00:59:11.661Z,74400
2016-12-07T00:59:20.363Z,74404
2016-12-07T00:59:29.040Z,74404
2016-12-07T00:59:37.787Z,74404
2016-12-07T00:59:46.462Z,74405
2016-12-07T00:59:55.166Z,74402
2016-12-07T01:00:03.922Z,74400
2016-12-07T01:00:12.628Z,74403
2016-12-07T01:00:21.326Z,74402
2016-12-07T01:00:30.034Z,74400
2016-12-07T01:00:38.755Z,74401
2016-12-07T01:00:48.071Z,74401
2016-12-07T01:00:57.062Z,74407
2016-12-07T01:01:05.764Z,74408
2016-12-07T01:01:14.488Z,74404
2016-12-07T01:01:23.189Z,74401
2016-12-07T01:01:31.911Z,74405
2016-12-07T01:01:40.597Z,74405
2016-12-07T01:01:49.299Z,74401
2016-12-07T01:01:58.059Z,74403
2016-12-07T01:02:06.782Z,74402
2016-12-07T01:02:15.505Z,74402
2016-12-07T01:02:24.243Z,74409
2016-12-07T01:02:32.927Z,74405
2016-12-07T01:02:41.619Z,74401
2016-12-07T01:02:50.372Z,74402
2016-12-07T01:02:59.060Z,74398
2016-12-07T01:03:07.782Z,74399
2016-12-07T01:03:16.521Z,74397
2016-12-07T01:03:25.250Z,74404
2016-12-07T01:03:33.932Z,74402
2016-12-07T01:03:42.655Z,74398
2016-12-07T01:03:51.358Z,74400
2016-12-07T01:04:00.050Z,74399
2016-12-07T01:04:08.749Z,74401
2016-12-07T01:04:17.480Z,74399
2016-12-07T01:04:26.219Z,74397
2016-12-07T01:04:34.979Z,74398
2016-12-07T01:04:43.714Z,74400
2016-12-07T01:04:52.409Z,74401
2016-12-07T01:05:01.120Z,74400
2016-12-07T01:05:09.825Z,74400
2016-12-07T01:05:18.521Z,74402
2016-12-07T01:05:27.247Z,74399
2016-12-07T01:05:36.211Z,74404
2016-12-07T01:05:44.944Z,74400
2016-12-07T01:05:53.655Z,74405
2016-12-07T01:06:02.380Z,74402
2016-12-07T01:06:11.107Z,74404
2016-12-07T01:06:19.834Z,74406
2016-12-07T01:06:28.532Z,74406
2016-12-07T01:06:37.261Z,74403
2016-12-07T01:06:45.965Z,74405
2016-12-07T01:06:54.675Z,74406
2016-12-07T01:07:03.418Z,74404
2016-12-07T01:07:12.126Z,74405
2016-12-07T01:07:20.853Z,74404
2016-12-07T01:07:29.577Z,74405
2016-12-07T01:07:38.278Z,74403
2016-12-07T01:07:46.974Z,74406
2016-12-07T01:07:55.721Z,74401
2016-12-07T01:08:04.440Z,74401
2016-12-07T01:08:13.145Z,74404
2016-12-07T01:08:21.893Z,74403
2016-12-07T01:08:30.604Z,74399
2016-12-07T01:08:39.375Z,74404
2016-12-07T01:08:48.387Z,74402
2016-12-07T01:08:57.428Z,74402
2016-12-07T01:09:06.136Z,74404
2016-12-07T01:09:14.882Z,74404
2016-12-07T01:09:23.574Z,74404
2016-12-07T01:09:32.338Z,74403
2016-12-07T01:09:41.062Z,74405
2016-12-07T01:09:49.802Z,74404
2016-12-07T01:09:58.503Z,74401
2016-12-07T01:10:07.233Z,74405
2016-12-07T01:10:15.945Z,74400
2016-12-07T01:10:24.691Z,74399
2016-12-07T01:10:33.439Z,74406
2016-12-07T01:10:42.151Z,74408
2016-12-07T01:10:50.899Z,74402
2016-12-07T01:10:59.641Z,74401
2016-12-07T01:11:08.364Z,74408
2016-12-07T01:11:17.068Z,74402
2016-12-07T01:11:25.781Z,74404
2016-12-07T01:11:34.507Z,74408
2016-12-07T01:11:43.256Z,74404
2016-12-07T01:11:51.942Z,74401
2016-12-07T01:12:00.939Z,74404
2016-12-07T01:12:09.657Z,74401
2016-12-07T01:12:18.367Z,74406
2016-12-07T01:12:27.085Z,74406
2016-12-07T01:12:35.785Z,74401
2016-12-07T01:12:44.542Z,74403
2016-12-07T01:12:53.293Z,74401
2016-12-07T01:13:02.304Z,74405
2016-12-07T01:13:11.027Z,74400
2016-12-07T01:13:19.786Z,74408
2016-12-07T01:13:28.467Z,74403
2016-12-07T01:13:37.173Z,74404
2016-12-07T01:13:45.862Z,74404
2016-12-07T01:13:54.545Z,74401
2016-12-07T01:14:03.260Z,74403
2016-12-07T01:14:11.983Z,74404
2016-12-07T01:14:20.669Z,74405
2016-12-07T01:14:29.374Z,74405
2016-12-07T01:14:38.064Z,74406
2016-12-07T01:14:46.805Z,74399
2016-12-07T01:14:55.549Z,74402
2016-12-07T01:15:04.292Z,74407
2016-12-07T01:15:12.967Z,74407
2016-12-07T01:15:21.677Z,74399
2016-12-07T01:15:30.691Z,74405
2016-12-07T01:15:39.406Z,74402
2016-12-07T01:15:48.138Z,74402
2016-12-07T01:15:57.162Z,74408
2016-12-07T01:16:05.861Z,74404
2016-12-07T01:16:14.596Z,74398
2016-12-07T01:16:23.306Z,74403
2016-12-07T01:16:32.056Z,74402
2016-12-07T01:16:40.789Z,74402
2016-12-07T01:16:49.490Z,74397
2016-12-07T01:16:58.198Z,74397
2016-12-07T01:17:06.895Z,74405
2016-12-07T01:17:15.620Z,74398
2016-12-07T01:17:24.321Z,74400
2016-12-07T01:17:33.048Z,74405
2016-12-07T01:17:41.750Z,74403
2016-12-07T01:17:50.425Z,74404
2016-12-07T01:17:59.095Z,74403
2016-12-07T01:18:07.773Z,74404
2016-12-07T01:18:16.473Z,74402
2016-12-07T01:18:25.143Z,74405
2016-12-07T01:18:33.867Z,74406
2016-12-07T01:18:42.591Z,74409
2016-12-07T01:18:51.280Z,74403
2016-12-07T01:19:00.002Z,74405
2016-12-07T01:19:08.742Z,74405
2016-12-07T01:19:17.500Z,74410
2016-12-07T01:19:26.201Z,74407
2016-12-07T01:19:34.972Z,74408
2016-12-07T01:19:43.676Z,74405
2016-12-07T01:19:52.402Z,74408
2016-12-07T01:20:01.139Z,74410
2016-12-07T01:20:10.112Z,74406
2016-12-07T01:20:18.858Z,74410
2016-12-07T01:20:27.528Z,74408
2016-12-07T01:20:36.235Z,74407
2016-12-07T01:20:44.967Z,74410
2016-12-07T01:20:53.684Z,74410
2016-12-07T01:21:02.431Z,74413
2016-12-07T01:21:11.160Z,74410
2016-12-07T01:21:19.907Z,74410
2016-12-07T01:21:28.609Z,74412
2016-12-07T01:21:37.586Z,74414
2016-12-07T01:21:46.287Z,74410
2016-12-07T01:21:54.997Z,74415
2016-12-07T01:22:03.733Z,74415
2016-12-07T01:22:12.456Z,74416
2016-12-07T01:22:21.123Z,74413
2016-12-07T01:22:29.822Z,74416
2016-12-07T01:22:38.513Z,74417
2016-12-07T01:22:47.546Z,74419
2016-12-07T01:22:56.269Z,74418
2016-12-07T01:23:04.966Z,74418
2016-12-07T01:23:13.671Z,74420
2016-12-07T01:23:22.333Z,74419
2016-12-07T01:23:31.022Z,74417
2016-12-07T01:23:39.789Z,74422
2016-12-07T01:23:48.470Z,74424
2016-12-07T01:23:57.160Z,74425
2016-12-07T01:24:05.876Z,74424
2016-12-07T01:24:14.880Z,74421
2016-12-07T01:24:23.610Z,74420
2016-12-07T01:24:32.331Z,74421
2016-12-07T01:24:41.034Z,74418
2016-12-07T01:24:49.704Z,74418
2016-12-07T01:24:58.413Z,74420
2016-12-07T01:25:07.142Z,74421
2016-12-07T01:25:15.885Z,74416
2016-12-07T01:25:24.612Z,74417
2016-12-07T01:25:33.365Z,74417
2016-12-07T01:25:42.083Z,74415
2016-12-07T01:25:50.770Z,74419
2016-12-07T01:25:59.514Z,74419
2016-12-07T01:26:08.221Z,74421
2016-12-07T01:26:16.938Z,74417
2016-12-07T01:26:25.703Z,74422
2016-12-07T01:26:34.386Z,74419
2016-12-07T01:26:43.077Z,74419
2016-12-07T01:26:51.775Z,74420
2016-12-07T01:27:00.518Z,74424
2016-12-07T01:27:09.249Z,74416
2016-12-07T01:27:17.980Z,74418
2016-12-07T01:27:26.702Z,74417
2016-12-07T01:27:35.424Z,74418
2016-12-07T01:27:44.140Z,74420
2016-12-07T01:27:52.907Z,74415
2016-12-07T01:28:01.641Z,74416
2016-12-07T01:28:10.671Z,74417
2016-12-07T01:28:19.343Z,74420
2016-12-07T01:28:28.065Z,74422
2016-12-07T01:28:36.835Z,74421
2016-12-07T01:28:45.574Z,74421
2016-12-07T01:28:54.304Z,74419
2016-12-07T01:29:03.006Z,74421
2016-12-07T01:29:11.720Z,74423
2016-12-07T01:29:20.418Z,74420
2016-12-07T01:29:29.129Z,74418
2016-12-07T01:29:37.818Z,74425
2016-12-07T01:29:46.519Z,74422
2016-12-07T01:29:55.233Z,74425
2016-12-07T01:30:03.943Z,74428
2016-12-07T01:30:12.702Z,74426
2016-12-07T01:30:21.391Z,74424
2016-12-07T01:30:30.361Z,74430
2016-12-07T01:30:39.339Z,74425
2016-12-07T01:30:48.091Z,74426
2016-12-07T01:30:56.839Z,74426
2016-12-07T01:31:05.565Z,74425
2016-12-07T01:31:14.283Z,74428
2016-12-07T01:31:22.984Z,74423
2016-12-07T01:31:31.735Z,74427
2016-12-07T01:31:40.465Z,74426
2016-12-07T01:31:49.169Z,74430
2016-12-07T01:31:58.170Z,74428
2016-12-07T01:32:06.898Z,74425
2016-12-07T01:32:15.599Z,74429
2016-12-07T01:32:24.283Z,74431
2016-12-07T01:32:32.992Z,74427
2016-12-07T01:32:41.698Z,74431
2016-12-07T01:32:50.436Z,74427
2016-12-07T01:32:59.144Z,74425
2016-12-07T01:33:07.845Z,74427
2016-12-07T01:33:16.599Z,74426
2016-12-07T01:33:25.333Z,74424
2016-12-07T01:33:34.029Z,74427
2016-12-07T01:33:42.770Z,74428
2016-12-07T01:33:51.516Z,74428
2016-12-07T01:34:00.260Z,74428
2016-12-07T01:34:09.009Z,74425
2016-12-07T01:34:17.711Z,74426
2016-12-07T01:34:26.392Z,74429
2016-12-07T01:34:35.110Z,74425
2016-12-07T01:34:43.817Z,74427
2016-12-07T01:34:52.585Z,74426
2016-12-07T01:35:01.282Z,74430
2016-12-07T01:35:09.991Z,74426
2016-12-07T01:35:18.766Z,74430
2016-12-07T01:35:27.482Z,74425
2016-12-07T01:35:36.183Z,74425
2016-12-07T01:35:44.912Z,74426
2016-12-07T01:35:53.642Z,74426
2016-12-07T01:36:02.377Z,74428
2016-12-07T01:36:11.110Z,74427
2016-12-07T01:36:19.854Z,74424
2016-12-07T01:36:28.570Z,74426
2016-12-07T01:36:37.275Z,74429
2016-12-07T01:36:46.018Z,74429
2016-12-07T01:36:54.738Z,74429
2016-12-07T01:37:03.423Z,74431
2016-12-07T01:37:12.133Z,74428
2016-12-07T01:37:20.843Z,74429
2016-12-07T01:37:29.559Z,74431
2016-12-07T01:37:38.239Z,74432
2016-12-07T01:37:46.938Z,74432
2016-12-07T01:37:55.648Z,74428
2016-12-07T01:38:04.382Z,74430
2016-12-07T01:38:13.124Z,74432
2016-12-07T01:38:21.889Z,74431
2016-12-07T01:38:30.882Z,74432
2016-12-07T01:38:39.606Z,74433
2016-12-07T01:38:48.284Z,74432
2016-12-07T01:38:57.007Z,74433
2016-12-07T01:39:05.701Z,74434
2016-12-07T01:39:14.424Z,74435
2016-12-07T01:39:23.441Z,74429
2016-12-07T01:39:32.125Z,74435
2016-12-07T01:39:40.852Z,74432
2016-12-07T01:39:49.610Z,74434
2016-12-07T01:39:58.330Z,74433
2016-12-07T01:40:07.042Z,74432
2016-12-07T01:40:15.728Z,74430
2016-12-07T01:40:24.450Z,74429
2016-12-07T01:40:33.188Z,74431
2016-12-07T01:40:41.921Z,74430
2016-12-07T01:40:50.615Z,74432
2016-12-07T01:40:59.306Z,74434
2016-12-07T01:41:08.006Z,74432
2016-12-07T01:41:16.755Z,74428
2016-12-07T01:41:25.492Z,74429
2016-12-07T01:41:34.173Z,74432
2016-12-07T01:41:42.855Z,74434
2016-12-07T01:41:51.587Z,74435
2016-12-07T01:42:00.305Z,74433
2016-12-07T01:42:08.971Z,74432
2016-12-07T01:42:17.698Z,74430
2016-12-07T01:42:26.409Z,74432
2016-12-07T01:42:35.176Z,74431
2016-12-07T01:42:44.209Z,74432
2016-12-07T01:42:52.949Z,74430
2016-12-07T01:43:01.635Z,74434
2016-12-07T01:43:10.370Z,74429
2016-12-07T01:43:19.056Z,74429
2016-12-07T01:43:27.795Z,74430
2016-12-07T01:43:36.497Z,74428
2016-12-07T01:43:45.213Z,74431
2016-12-07T01:43:53.947Z,74430
2016-12-07T01:44:02.905Z,74431
2016-12-07T01:44:11.628Z,74430
2016-12-07T01:44:20.349Z,74432
2016-12-07T01:44:29.033Z,74432
2016-12-07T01:44:37.747Z,74434
2016-12-07T01:44:46.448Z,74435
2016-12-07T01:44:55.165Z,74432
2016-12-07T01:45:03.881Z,74431
2016-12-07T01:45:12.609Z,74430
2016-12-07T01:45:21.331Z,74433
2016-12-07T01:45:30.079Z,74431
2016-12-07T01:45:38.803Z,74434
2016-12-07T01:45:47.817Z,74434
2016-12-07T01:45:56.840Z,74429
2016-12-07T01:46:05.570Z,74433
2016-12-07T01:46:14.285Z,74434
2016-12-07T01:46:22.973Z,74432
2016-12-07T01:46:31.693Z,74432
2016-12-07T01:46:40.422Z,74433
2016-12-07T01:46:49.140Z,74435
2016-12-07T01:46:57.866Z,74435
2016-12-07T01:47:06.580Z,74435
2016-12-07T01:47:15.264Z,74436
2016-12-07T01:47:24.009Z,74436
2016-12-07T01:47:32.703Z,74437
2016-12-07T01:47:41.714Z,74434
2016-12-07T01:47:50.421Z,74433
2016-12-07T01:47:59.101Z,74430
2016-12-07T01:48:07.849Z,74432
2016-12-07T01:48:16.552Z,74426
2016-12-07T01:48:25.238Z,74433
2016-12-07T01:48:33.965Z,74433
2016-12-07T01:48:42.666Z,74435
2016-12-07T01:48:51.359Z,74432
2016-12-07T01:49:00.363Z,74435
2016-12-07T01:49:09.051Z,74433
2016-12-07T01:49:17.771Z,74432
2016-12-07T01:49:26.449Z,74428
2016-12-07T01:49:35.138Z,74433
2016-12-07T01:49:43.858Z,74430
2016-12-07T01:49:52.564Z,74428
2016-12-07T01:50:01.308Z,74427
2016-12-07T01:50:10.073Z,74428
2016-12-07T01:50:18.837Z,74433
2016-12-07T01:50:27.543Z,74430
2016-12-07T01:50:36.278Z,74426
2016-12-07T01:50:44.998Z,74429
2016-12-07T01:50:53.740Z,74431
2016-12-07T01:51:02.470Z,74434
2016-12-07T01:51:11.174Z,74424
2016-12-07T01:51:19.867Z,74429
2016-12-07T01:51:28.551Z,74432
2016-12-07T01:51:37.253Z,74427
2016-12-07T01:51:45.973Z,74426
2016-12-07T01:51:54.664Z,74428
2016-12-07T01:52:03.361Z,74431
2016-12-07T01:52:12.047Z,74427
2016-12-07T01:52:20.778Z,74429
2016-12-07T01:52:29.490Z,74433